Time;durP1;ratioP1;P1;durP2;ratioP2;P2;SDS_P1;SDS_P2;PMS_P1;PMS_P2;Temp;Humidity;BMP_temperature;BMP_pressure;BME280_temperature;BME280_humidity;BME280_pressure;Samples;Min_cycle;Max_cycle;Signal;HPM_P1;HPM_P2
2024/03/26 00:01:52;;;;;;;2.53;2.33;;;5.90;95.80;;;;;;493978;241;27545;-71
2024/03/26 00:03:53;;;;;;;3.05;2.30;;;5.90;95.60;;;;;;493971;241;27623;-71
2024/03/26 00:05:55;;;;;;;3.58;2.45;;;5.90;95.60;;;;;;493951;241;27485;-72
2024/03/26 00:07:56;;;;;;;3.08;2.30;;;5.90;95.70;;;;;;493981;241;27479;-74
2024/03/26 00:09:57;;;;;;;3.33;2.55;;;5.80;95.90;;;;;;493993;241;27669;-72
2024/03/26 00:11:58;;;;;;;4.85;2.70;;;5.80;96.00;;;;;;493971;241;27995;-72
2024/03/26 00:14:00;;;;;;;3.53;2.80;;;5.80;96.00;;;;;;493961;241;28079;-71
2024/03/26 00:16:01;;;;;;;3.50;2.65;;;5.80;95.90;;;;;;493987;241;27553;-74
2024/03/26 00:18:02;;;;;;;3.55;2.75;;;5.80;95.90;;;;;;494013;241;27473;-74
2024/03/26 00:20:04;;;;;;;3.17;2.20;;;5.80;95.90;;;;;;493983;241;27550;-75
2024/03/26 00:22:05;;;;;;;2.55;2.03;;;5.80;95.90;;;;;;493972;241;27503;-74
2024/03/26 00:24:06;;;;;;;2.85;2.30;;;5.80;96.30;;;;;;493950;241;27636;-73
2024/03/26 00:26:07;;;;;;;5.37;2.90;;;5.80;95.90;;;;;;493997;241;27988;-75
2024/03/26 00:28:09;;;;;;;4.45;2.40;;;5.80;95.80;;;;;;493932;241;27573;-73
2024/03/26 00:30:10;;;;;;;2.35;2.15;;;5.80;96.10;;;;;;493949;241;27541;-72
2024/03/26 00:32:11;;;;;;;4.87;2.30;;;5.80;96.00;;;;;;493938;241;27580;-72
2024/03/26 00:34:12;;;;;;;3.40;2.50;;;5.80;95.90;;;;;;493941;241;27481;-72
2024/03/26 00:36:14;;;;;;;2.42;2.22;;;5.80;96.20;;;;;;493977;241;27509;-71
2024/03/26 00:38:15;;;;;;;3.95;2.90;;;5.80;96.10;;;;;;493947;241;27469;-71
2024/03/26 00:40:16;;;;;;;5.78;2.45;;;5.80;96.00;;;;;;493898;241;27980;-73
2024/03/26 00:42:17;;;;;;;7.03;2.25;;;5.80;96.00;;;;;;493932;241;27912;-73
2024/03/26 00:44:19;;;;;;;5.22;2.55;;;5.80;95.80;;;;;;493960;241;27484;-73
2024/03/26 00:46:20;;;;;;;7.07;2.90;;;5.80;95.80;;;;;;493936;241;27649;-72
2024/03/26 00:48:21;;;;;;;5.35;2.60;;;5.90;96.20;;;;;;493937;241;27470;-71
2024/03/26 00:50:22;;;;;;;2.60;2.37;;;5.80;96.20;;;;;;493878;237;27513;-72
2024/03/26 00:52:24;;;;;;;3.47;2.30;;;5.80;96.00;;;;;;493934;241;27557;-73
2024/03/26 00:54:25;;;;;;;3.55;2.50;;;5.80;96.10;;;;;;493935;241;27926;-71
2024/03/26 00:56:26;;;;;;;4.45;2.58;;;5.70;96.40;;;;;;493949;237;28035;-72
2024/03/26 00:58:27;;;;;;;2.33;2.00;;;5.70;96.40;;;;;;493891;237;27458;-71
2024/03/26 01:00:29;;;;;;;2.97;2.17;;;5.60;96.50;;;;;;493963;241;27577;-74
2024/03/26 01:02:30;;;;;;;2.37;2.12;;;5.60;97.00;;;;;;493962;241;27658;-72
2024/03/26 01:04:31;;;;;;;5.00;2.00;;;5.60;96.70;;;;;;493948;241;27477;-74
2024/03/26 01:06:32;;;;;;;3.17;2.12;;;5.60;96.70;;;;;;493905;241;27549;-74
2024/03/26 01:08:34;;;;;;;4.45;2.58;;;5.50;96.80;;;;;;493904;241;27498;-73
2024/03/26 01:10:35;;;;;;;2.40;2.20;;;5.50;96.80;;;;;;493922;241;27934;-71
2024/03/26 01:12:36;;;;;;;2.50;2.30;;;5.50;97.10;;;;;;493909;237;28122;-74
2024/03/26 01:14:37;;;;;;;3.30;2.35;;;5.50;97.40;;;;;;493911;241;27462;-73
2024/03/26 01:16:39;;;;;;;3.20;2.28;;;5.50;96.70;;;;;;493908;241;27531;-72
2024/03/26 01:18:40;;;;;;;2.20;2.08;;;5.50;96.60;;;;;;493978;241;27549;-75
2024/03/26 01:20:41;;;;;;;3.60;2.40;;;5.50;96.90;;;;;;493944;241;27473;-74
2024/03/26 01:22:42;;;;;;;3.22;2.20;;;5.50;97.20;;;;;;493910;241;27502;-75
2024/03/26 01:24:44;;;;;;;4.22;2.35;;;5.50;97.20;;;;;;493903;241;27905;-73
2024/03/26 01:26:45;;;;;;;4.00;2.45;;;5.50;97.30;;;;;;493966;241;28020;-71
2024/03/26 01:28:46;;;;;;;2.65;2.20;;;5.50;97.10;;;;;;493971;241;27617;-71
2024/03/26 01:30:48;;;;;;;2.70;2.35;;;5.50;96.80;;;;;;493946;241;27481;-72
2024/03/26 01:32:49;;;;;;;2.03;1.83;;;5.50;96.90;;;;;;493921;241;27505;-74
2024/03/26 01:34:50;;;;;;;2.55;2.30;;;5.50;97.00;;;;;;493913;241;27529;-74
2024/03/26 01:36:51;;;;;;;3.75;2.10;;;5.50;97.00;;;;;;493962;241;27481;-71
2024/03/26 01:38:53;;;;;;;2.40;2.20;;;5.50;96.90;;;;;;493944;241;27537;-71
2024/03/26 01:40:54;;;;;;;2.45;2.17;;;5.50;97.00;;;;;;493921;241;27982;-72
2024/03/26 01:42:55;;;;;;;2.53;2.30;;;5.50;96.80;;;;;;493913;241;27608;-74
2024/03/26 01:44:56;;;;;;;3.92;2.60;;;5.50;97.20;;;;;;493976;241;27944;-75
2024/03/26 01:46:58;;;;;;;2.00;1.80;;;5.50;97.20;;;;;;493936;241;27945;-73
2024/03/26 01:48:59;;;;;;;5.65;2.53;;;5.40;97.30;;;;;;493928;241;27549;-72
2024/03/26 01:51:00;;;;;;;2.30;2.10;;;5.40;97.90;;;;;;493891;241;27533;-71
2024/03/26 01:53:01;;;;;;;2.67;2.05;;;5.40;97.30;;;;;;493969;241;27478;-71
2024/03/26 01:55:03;;;;;;;2.78;2.30;;;5.40;97.20;;;;;;493948;241;27604;-71
2024/03/26 01:57:04;;;;;;;2.85;2.47;;;5.40;97.00;;;;;;493878;241;27547;-70
2024/03/26 01:59:05;;;;;;;2.58;2.35;;;5.40;97.00;;;;;;493902;241;27579;-71
2024/03/26 02:01:06;;;;;;;2.28;2.05;;;5.40;97.10;;;;;;493974;241;28160;-74
2024/03/26 02:03:08;;;;;;;2.95;2.00;;;5.40;97.70;;;;;;493970;241;27944;-71
2024/03/26 02:05:09;;;;;;;2.10;1.90;;;5.30;97.40;;;;;;493947;241;27516;-71
2024/03/26 02:07:10;;;;;;;3.10;1.90;;;5.30;97.80;;;;;;493919;237;27522;-74
2024/03/26 02:09:11;;;;;;;2.30;2.10;;;5.30;97.50;;;;;;493923;241;27636;-71
2024/03/26 02:11:13;;;;;;;2.40;2.10;;;5.30;97.30;;;;;;493950;241;27541;-71
2024/03/26 02:13:14;;;;;;;3.85;1.90;;;5.20;97.90;;;;;;493940;241;27485;-71
2024/03/26 02:15:15;;;;;;;3.08;2.20;;;5.10;97.70;;;;;;493894;241;27990;-71
2024/03/26 02:17:17;;;;;;;2.37;2.05;;;5.10;97.80;;;;;;493919;241;27936;-73
2024/03/26 02:19:18;;;;;;;2.60;2.25;;;5.10;98.00;;;;;;493963;241;27569;-71
2024/03/26 02:21:19;;;;;;;2.00;1.85;;;5.00;98.10;;;;;;493969;241;27520;-72
2024/03/26 02:23:20;;;;;;;2.62;2.15;;;5.00;98.50;;;;;;493915;237;27498;-70
2024/03/26 02:25:22;;;;;;;2.95;2.37;;;4.90;98.40;;;;;;493893;241;27525;-71
2024/03/26 02:27:23;;;;;;;3.58;2.30;;;4.90;98.20;;;;;;493941;237;27531;-72
2024/03/26 02:29:24;;;;;;;3.65;2.40;;;4.90;98.10;;;;;;493942;241;27577;-72
2024/03/26 02:31:25;;;;;;;2.33;2.12;;;4.90;98.60;;;;;;493954;241;28015;-71
2024/03/26 02:33:27;;;;;;;2.30;2.10;;;4.90;98.20;;;;;;493926;241;28011;-71
2024/03/26 02:35:28;;;;;;;2.72;2.37;;;4.90;98.50;;;;;;493908;241;27574;-71
2024/03/26 02:37:29;;;;;;;2.53;1.90;;;4.80;98.70;;;;;;493964;241;27518;-73
2024/03/26 02:39:30;;;;;;;3.37;1.87;;;4.70;99.00;;;;;;493926;241;27533;-71
2024/03/26 02:41:32;;;;;;;2.30;2.10;;;4.70;99.50;;;;;;493910;241;27533;-71
2024/03/26 02:43:33;;;;;;;2.15;1.98;;;4.60;99.40;;;;;;493937;241;27539;-71
2024/03/26 02:45:34;;;;;;;2.10;2.00;;;4.50;99.60;;;;;;493946;241;27536;-73
2024/03/26 02:47:35;;;;;;;1.92;1.83;;;4.50;99.90;;;;;;493956;241;27974;-72
2024/03/26 02:49:37;;;;;;;2.72;2.37;;;4.40;99.60;;;;;;493953;241;27951;-71
2024/03/26 02:51:38;;;;;;;6.12;3.00;;;4.40;99.60;;;;;;493972;241;27982;-71
2024/03/26 02:53:39;;;;;;;3.55;2.40;;;4.40;99.80;;;;;;493987;241;27509;-71
2024/03/26 02:55:40;;;;;;;3.00;2.50;;;4.40;99.90;;;;;;493930;241;27510;-71
2024/03/26 02:57:42;;;;;;;2.45;2.25;;;4.40;99.90;;;;;;493966;241;27505;-71
2024/03/26 02:59:43;;;;;;;3.22;2.53;;;4.40;99.90;;;;;;493936;241;27471;-71
2024/03/26 03:01:44;;;;;;;2.42;2.20;;;4.30;99.90;;;;;;493927;241;27552;-71
2024/03/26 03:03:45;;;;;;;5.55;2.75;;;4.40;99.90;;;;;;493936;241;27549;-73
2024/03/26 03:05:47;;;;;;;4.78;3.33;;;4.30;99.90;;;;;;493923;237;27943;-71
2024/03/26 03:07:48;;;;;;;3.15;2.78;;;4.30;99.90;;;;;;493919;237;28099;-71
2024/03/26 03:09:49;;;;;;;3.20;2.90;;;4.20;99.90;;;;;;493924;241;27573;-71
2024/03/26 03:11:50;;;;;;;6.87;3.47;;;4.30;99.90;;;;;;493908;241;27508;-71
2024/03/26 03:13:52;;;;;;;4.60;3.40;;;4.30;99.90;;;;;;493951;241;27523;-72
2024/03/26 03:15:53;;;;;;;2.83;2.58;;;4.30;99.90;;;;;;493899;241;27470;-71
2024/03/26 03:17:54;;;;;;;3.78;2.90;;;4.40;99.90;;;;;;493900;241;27507;-72
2024/03/26 03:19:55;;;;;;;3.47;3.17;;;4.40;99.90;;;;;;493904;241;27532;-71
2024/03/26 03:21:57;;;;;;;4.25;2.90;;;4.30;99.90;;;;;;494006;241;27561;-71
2024/03/26 03:23:58;;;;;;;5.15;3.40;;;4.30;99.90;;;;;;493960;241;27993;-71
2024/03/26 03:25:59;;;;;;;4.45;2.92;;;4.30;99.90;;;;;;493938;241;27990;-71
2024/03/26 03:28:00;;;;;;;3.45;2.60;;;4.30;99.90;;;;;;493932;241;28012;-71
2024/03/26 03:30:02;;;;;;;2.40;2.20;;;4.20;99.90;;;;;;493998;241;27556;-73
2024/03/26 03:32:03;;;;;;;2.30;2.10;;;4.20;99.90;;;;;;493974;241;27577;-71
2024/03/26 03:34:04;;;;;;;2.55;2.35;;;4.20;99.90;;;;;;493962;241;27500;-71
2024/03/26 03:36:05;;;;;;;3.55;2.90;;;4.20;99.90;;;;;;493925;237;27469;-71
2024/03/26 03:38:07;;;;;;;3.95;2.72;;;4.20;99.90;;;;;;493942;241;27596;-71
2024/03/26 03:40:08;;;;;;;6.80;3.20;;;4.30;99.90;;;;;;493989;241;27561;-72
2024/03/26 03:42:09;;;;;;;3.80;2.95;;;4.30;99.90;;;;;;493975;241;27469;-71
2024/03/26 03:44:10;;;;;;;3.62;2.20;;;4.30;99.90;;;;;;493952;241;27970;-72
2024/03/26 03:46:12;;;;;;;2.28;2.08;;;4.30;99.90;;;;;;493957;241;28681;-71
2024/03/26 03:48:13;;;;;;;3.72;2.90;;;4.20;99.90;;;;;;493971;241;27936;-71
2024/03/26 03:50:14;;;;;;;4.43;3.08;;;4.30;99.90;;;;;;493950;241;27597;-71
2024/03/26 03:52:15;;;;;;;2.97;2.70;;;4.30;99.90;;;;;;493905;241;27470;-73
2024/03/26 03:54:17;;;;;;;8.93;2.80;;;4.20;99.90;;;;;;493878;241;27513;-71
2024/03/26 03:56:18;;;;;;;3.03;2.40;;;4.20;99.90;;;;;;493961;237;27863;-74
2024/03/26 03:58:19;;;;;;;2.47;2.37;;;4.10;99.90;;;;;;493947;241;27573;-71
2024/03/26 04:00:21;;;;;;;5.32;2.40;;;4.10;99.90;;;;;;493919;241;27528;-71
2024/03/26 04:02:22;;;;;;;4.15;2.40;;;4.00;99.90;;;;;;493930;241;27477;-72
2024/03/26 04:04:23;;;;;;;2.17;2.08;;;4.00;99.90;;;;;;493902;241;28038;-71
2024/03/26 04:06:24;;;;;;;2.53;2.10;;;4.10;99.90;;;;;;493988;241;28033;-73
2024/03/26 04:08:26;;;;;;;2.60;2.40;;;4.10;99.90;;;;;;493941;241;27491;-72
2024/03/26 04:10:27;;;;;;;2.67;2.47;;;4.20;99.90;;;;;;493930;241;27536;-71
2024/03/26 04:12:28;;;;;;;3.87;2.22;;;4.30;99.90;;;;;;493887;241;27478;-74
2024/03/26 04:14:29;;;;;;;2.05;1.95;;;4.30;99.90;;;;;;493969;241;27473;-73
2024/03/26 04:16:31;;;;;;;2.50;2.30;;;4.30;99.90;;;;;;493946;241;27613;-71
2024/03/26 04:18:32;;;;;;;2.92;2.70;;;4.40;99.90;;;;;;493926;241;27540;-71
2024/03/26 04:20:33;;;;;;;2.37;2.10;;;4.20;99.90;;;;;;493924;241;27509;-71
2024/03/26 04:22:34;;;;;;;2.80;2.60;;;4.10;99.90;;;;;;493966;241;28191;-73
2024/03/26 04:24:36;;;;;;;2.42;2.20;;;4.10;99.90;;;;;;493986;241;27933;-71
2024/03/26 04:26:37;;;;;;;2.20;2.00;;;4.20;99.90;;;;;;493937;241;27524;-74
2024/03/26 04:28:38;;;;;;;2.50;2.30;;;4.20;99.90;;;;;;493927;241;27478;-70
2024/03/26 04:30:39;;;;;;;2.45;2.22;;;4.30;99.90;;;;;;493916;241;27602;-71
2024/03/26 04:32:41;;;;;;;3.37;2.50;;;4.40;99.90;;;;;;493972;241;27536;-72
2024/03/26 04:34:42;;;;;;;2.37;2.28;;;4.30;99.90;;;;;;493929;241;27481;-71
2024/03/26 04:36:43;;;;;;;3.92;2.30;;;4.30;99.90;;;;;;493907;241;27509;-71
2024/03/26 04:38:44;;;;;;;2.50;2.30;;;4.10;99.90;;;;;;493893;237;27481;-71
2024/03/26 04:40:46;;;;;;;2.60;2.15;;;4.10;99.90;;;;;;493965;237;28024;-71
2024/03/26 04:42:47;;;;;;;2.42;2.22;;;4.10;99.90;;;;;;493950;241;28007;-74
2024/03/26 04:44:48;;;;;;;3.45;2.40;;;4.10;99.90;;;;;;493942;241;27470;-71
2024/03/26 04:46:49;;;;;;;2.75;1.98;;;4.10;99.90;;;;;;493924;241;27532;-71
2024/03/26 04:48:51;;;;;;;2.10;2.00;;;4.00;99.90;;;;;;493918;241;27588;-70
2024/03/26 04:50:52;;;;;;;4.07;2.55;;;4.00;99.90;;;;;;493966;237;27481;-73
2024/03/26 04:52:53;;;;;;;2.40;1.80;;;4.00;99.90;;;;;;493938;241;27514;-74
2024/03/26 04:54:54;;;;;;;2.10;2.00;;;4.00;99.90;;;;;;493910;241;27509;-71
2024/03/26 04:56:56;;;;;;;2.85;2.33;;;4.00;99.90;;;;;;493884;241;27627;-70
2024/03/26 04:58:57;;;;;;;2.53;2.33;;;4.00;99.90;;;;;;493950;241;28104;-75
2024/03/26 05:00:58;;;;;;;2.65;2.35;;;4.10;99.90;;;;;;493950;241;27990;-72
2024/03/26 05:02:59;;;;;;;3.87;2.10;;;4.20;99.90;;;;;;493915;241;27976;-73
2024/03/26 05:05:01;;;;;;;1.98;1.83;;;4.30;99.90;;;;;;493918;241;27582;-73
2024/03/26 05:07:02;;;;;;;2.47;2.28;;;4.40;99.90;;;;;;493885;241;27536;-73
2024/03/26 05:09:04;;;;;;;4.28;2.10;;;4.40;99.90;;;;;;493983;241;27538;-74
2024/03/26 05:11:04;;;;;;;1.85;1.75;;;4.40;99.90;;;;;;493902;241;27477;-72
2024/03/26 05:13:06;;;;;;;3.03;2.10;;;4.50;99.90;;;;;;493920;241;27588;-73
2024/03/26 05:15:07;;;;;;;2.28;2.10;;;4.50;99.90;;;;;;493905;241;27554;-73
2024/03/26 05:17:08;;;;;;;2.40;2.20;;;4.50;99.90;;;;;;493929;241;28063;-73
2024/03/26 05:19:09;;;;;;;3.42;2.60;;;4.60;99.90;;;;;;493953;241;28060;-74
2024/03/26 05:21:13;;;;;;;3.83;2.45;;;4.60;99.90;;;;;;493905;241;27510;-71
2024/03/26 05:23:12;;;;;;;2.95;2.65;;;4.60;99.90;;;;;;493797;237;27512;-71
2024/03/26 05:25:13;;;;;;;2.53;2.20;;;4.60;99.90;;;;;;493974;241;27638;-71
2024/03/26 05:27:14;;;;;;;2.50;2.30;;;4.60;99.90;;;;;;493937;241;27461;-71
2024/03/26 05:29:16;;;;;;;2.90;2.47;;;4.50;99.90;;;;;;493944;241;27510;-71
2024/03/26 05:31:17;;;;;;;3.15;2.70;;;4.50;99.90;;;;;;493897;241;27472;-71
2024/03/26 05:33:18;;;;;;;2.62;2.42;;;4.40;99.90;;;;;;493894;237;27528;-71
2024/03/26 05:35:20;;;;;;;5.07;2.70;;;4.40;99.90;;;;;;493926;237;28100;-71
2024/03/26 05:37:21;;;;;;;6.15;2.55;;;4.30;99.90;;;;;;493882;241;28230;-71
2024/03/26 05:39:22;;;;;;;3.45;2.50;;;4.20;99.90;;;;;;493881;241;27617;-72
2024/03/26 05:41:23;;;;;;;2.35;2.25;;;4.20;99.90;;;;;;493846;241;27539;-71
2024/03/26 05:43:25;;;;;;;2.75;2.55;;;4.10;99.90;;;;;;493915;241;27935;-72
2024/03/26 05:45:26;;;;;;;3.53;2.60;;;4.20;99.90;;;;;;493925;241;28008;-72
2024/03/26 05:47:27;;;;;;;4.90;2.47;;;4.20;99.90;;;;;;493868;241;27482;-71
2024/03/26 05:49:28;;;;;;;2.75;2.53;;;4.20;99.90;;;;;;493862;241;27525;-72
2024/03/26 05:51:30;;;;;;;2.50;2.30;;;4.20;99.90;;;;;;493944;241;27658;-72
2024/03/26 05:53:31;;;;;;;3.20;2.58;;;4.30;99.90;;;;;;493920;241;27513;-72
2024/03/26 05:55:32;;;;;;;2.50;2.30;;;4.40;99.90;;;;;;493920;241;27525;-72
2024/03/26 05:57:33;;;;;;;2.10;2.00;;;4.40;99.90;;;;;;493878;241;27486;-72
2024/03/26 05:59:35;;;;;;;2.62;2.42;;;4.60;99.90;;;;;;493940;241;28108;-71
2024/03/26 06:01:36;;;;;;;3.05;2.55;;;4.70;99.90;;;;;;493971;241;27982;-72
2024/03/26 06:03:37;;;;;;;2.85;2.65;;;4.80;99.90;;;;;;493932;241;28052;-72
2024/03/26 06:05:38;;;;;;;2.87;2.67;;;4.70;99.90;;;;;;493877;237;27533;-72
2024/03/26 06:07:40;;;;;;;4.22;2.50;;;4.70;99.90;;;;;;493922;241;27529;-71
2024/03/26 06:09:41;;;;;;;3.17;2.85;;;4.60;99.90;;;;;;493961;237;27510;-72
2024/03/26 06:11:42;;;;;;;2.40;2.20;;;4.70;99.90;;;;;;493928;241;27533;-72
2024/03/26 06:13:43;;;;;;;5.03;2.42;;;4.80;99.90;;;;;;493922;241;27545;-71
2024/03/26 06:15:45;;;;;;;3.15;2.10;;;4.90;99.90;;;;;;493931;241;27970;-72
2024/03/26 06:17:46;;;;;;;3.05;2.83;;;4.90;99.90;;;;;;493944;241;28191;-73
2024/03/26 06:19:47;;;;;;;10.18;3.37;;;4.90;99.90;;;;;;493925;241;27473;-72
2024/03/26 06:21:48;;;;;;;2.95;2.60;;;4.90;99.90;;;;;;493923;241;27624;-74
2024/03/26 06:23:50;;;;;;;3.33;2.50;;;4.80;99.90;;;;;;493868;241;27474;-71
2024/03/26 06:25:51;;;;;;;3.00;2.70;;;4.90;99.90;;;;;;493883;241;27628;-74
2024/03/26 06:27:52;;;;;;;3.12;2.80;;;4.90;99.90;;;;;;493961;241;27543;-74
2024/03/26 06:29:53;;;;;;;3.30;2.80;;;5.00;99.90;;;;;;493926;241;27916;-74
2024/03/26 06:31:55;;;;;;;3.30;3.00;;;5.00;99.90;;;;;;493937;241;28018;-71
2024/03/26 06:33:56;;;;;;;3.17;2.95;;;5.00;99.90;;;;;;493880;237;27666;-71
2024/03/26 06:35:57;;;;;;;5.00;3.22;;;5.10;99.90;;;;;;493987;241;27648;-71
2024/03/26 06:37:59;;;;;;;6.10;3.20;;;5.20;99.90;;;;;;493952;241;27606;-73
2024/03/26 06:40:00;;;;;;;2.85;2.60;;;5.10;99.90;;;;;;493965;241;27587;-72
2024/03/26 06:42:01;;;;;;;4.07;2.67;;;5.20;99.90;;;;;;493880;241;27628;-72
2024/03/26 06:44:03;;;;;;;3.30;3.00;;;5.30;99.90;;;;;;493999;237;27510;-72
2024/03/26 06:46:04;;;;;;;7.05;3.20;;;5.40;99.90;;;;;;493964;241;28025;-72
2024/03/26 06:48:05;;;;;;;3.12;2.50;;;5.40;99.90;;;;;;493988;241;28092;-71
2024/03/26 06:50:06;;;;;;;4.37;2.95;;;5.40;99.90;;;;;;493925;237;27560;-71
2024/03/26 06:52:08;;;;;;;2.70;2.50;;;5.40;99.90;;;;;;493944;241;27521;-73
2024/03/26 06:54:09;;;;;;;4.00;2.65;;;5.50;99.90;;;;;;493976;241;27525;-73
2024/03/26 06:56:10;;;;;;;4.82;2.90;;;5.40;99.90;;;;;;493935;241;27460;-71
2024/03/26 06:58:11;;;;;;;3.17;2.45;;;5.40;99.90;;;;;;493950;241;27533;-72
2024/03/26 07:00:14;;;;;;;2.58;2.37;;;5.40;99.90;;;;;;493929;241;27475;-71
2024/03/26 07:02:14;;;;;;;4.00;2.40;;;5.50;99.90;;;;;;493903;241;28731;-73
2024/03/26 07:04:15;;;;;;;2.87;2.08;;;5.50;99.90;;;;;;493962;241;28017;-72
2024/03/26 07:06:16;;;;;;;3.20;2.90;;;5.70;99.90;;;;;;493809;241;27470;-73
2024/03/26 07:08:17;;;;;;;2.58;2.35;;;5.80;99.90;;;;;;493876;241;27533;-73
2024/03/26 07:10:19;;;;;;;2.40;2.20;;;5.80;99.90;;;;;;493985;241;27495;-74
2024/03/26 07:12:20;;;;;;;6.12;2.78;;;6.00;99.90;;;;;;493956;241;27576;-73
2024/03/26 07:14:21;;;;;;;3.53;2.90;;;6.10;99.90;;;;;;493938;241;28125;-74
2024/03/26 07:16:22;;;;;;;2.80;2.50;;;6.20;99.90;;;;;;493909;241;28005;-73
2024/03/26 07:18:24;;;;;;;2.87;2.60;;;6.40;99.90;;;;;;493657;238;27517;-73
2024/03/26 07:20:25;;;;;;;3.33;2.50;;;6.40;99.90;;;;;;493960;241;27596;-74
2024/03/26 07:22:27;;;;;;;3.90;2.50;;;6.50;99.90;;;;;;493928;241;27576;-73
2024/03/26 07:24:27;;;;;;;2.53;2.33;;;6.60;99.90;;;;;;493911;241;28326;-73
2024/03/26 07:26:29;;;;;;;3.73;2.60;;;6.60;99.90;;;;;;493891;241;28272;-72
2024/03/26 07:28:30;;;;;;;2.63;2.40;;;6.60;99.90;;;;;;493931;241;28440;-73
2024/03/26 07:30:31;;;;;;;2.50;2.30;;;6.70;99.90;;;;;;493956;241;28218;-73
2024/03/26 07:32:32;;;;;;;3.67;2.33;;;6.80;99.90;;;;;;493933;241;28800;-73
2024/03/26 07:34:34;;;;;;;3.67;2.47;;;6.90;99.90;;;;;;493888;241;27763;-73
2024/03/26 07:36:35;;;;;;;2.73;2.53;;;6.90;99.90;;;;;;493916;241;28044;-73
2024/03/26 07:38:36;;;;;;;2.13;2.03;;;7.10;99.90;;;;;;493978;241;28031;-73
2024/03/26 07:40:37;;;;;;;3.00;2.50;;;7.20;99.90;;;;;;493966;241;28523;-74
2024/03/26 07:42:39;;;;;;;2.80;2.50;;;7.30;99.90;;;;;;493930;241;28384;-73
2024/03/26 07:44:40;;;;;;;2.60;2.40;;;7.40;99.90;;;;;;493918;241;28460;-73
2024/03/26 07:46:42;;;;;;;2.33;2.13;;;7.50;99.90;;;;;;493973;241;28264;-74
2024/03/26 07:48:42;;;;;;;5.10;2.70;;;7.50;99.90;;;;;;493872;241;28496;-73
2024/03/26 07:50:44;;;;;;;4.47;3.10;;;7.60;99.90;;;;;;493769;241;28206;-74
2024/03/26 07:52:45;;;;;;;3.20;2.60;;;7.60;99.90;;;;;;493923;241;27922;-74
2024/03/26 07:54:46;;;;;;;3.57;2.50;;;7.70;99.90;;;;;;493903;241;27971;-73
2024/03/26 07:56:47;;;;;;;3.20;2.70;;;7.70;99.90;;;;;;493994;241;27653;-75
2024/03/26 07:58:49;;;;;;;6.17;2.67;;;7.70;99.90;;;;;;493940;237;27586;-73
2024/03/26 08:00:50;;;;;;;4.17;3.10;;;7.70;99.90;;;;;;493885;241;27978;-74
2024/03/26 08:02:51;;;;;;;3.80;3.20;;;7.70;99.90;;;;;;493889;241;27610;-73
2024/03/26 08:04:53;;;;;;;3.20;2.90;;;7.80;99.90;;;;;;493986;241;27609;-73
2024/03/26 08:06:54;;;;;;;4.87;3.00;;;7.80;99.90;;;;;;493950;241;28088;-74
2024/03/26 08:08:55;;;;;;;3.87;3.40;;;7.90;99.90;;;;;;493926;241;27716;-73
2024/03/26 08:10:56;;;;;;;4.40;2.70;;;7.90;99.90;;;;;;493950;241;27851;-74
2024/03/26 08:12:57;;;;;;;3.20;2.90;;;7.90;99.90;;;;;;493916;241;27623;-73
2024/03/26 08:14:59;;;;;;;3.00;2.60;;;8.00;99.90;;;;;;493993;241;27475;-73
2024/03/26 08:17:00;;;;;;;3.13;2.70;;;8.00;99.90;;;;;;493955;241;27964;-74
2024/03/26 08:19:02;;;;;;;3.43;3.03;;;8.10;99.90;;;;;;493916;241;28527;-73
2024/03/26 08:21:02;;;;;;;3.40;2.80;;;8.20;99.90;;;;;;493922;241;28470;-73
2024/03/26 08:23:04;;;;;;;7.57;2.93;;;8.30;99.90;;;;;;494006;241;28485;-75
2024/03/26 08:25:05;;;;;;;4.60;2.87;;;8.50;99.90;;;;;;493974;241;28561;-72
2024/03/26 08:27:06;;;;;;;3.83;2.63;;;8.50;99.90;;;;;;493813;237;28218;-74
2024/03/26 08:29:07;;;;;;;5.80;3.20;;;8.70;99.90;;;;;;493892;237;28284;-73
2024/03/26 08:31:09;;;;;;;3.30;3.00;;;8.70;99.90;;;;;;493931;241;28087;-74
2024/03/26 08:33:11;;;;;;;4.50;3.20;;;8.80;99.90;;;;;;493971;241;27875;-75
2024/03/26 08:35:11;;;;;;;7.30;2.57;;;8.80;99.60;;;;;;493910;241;28092;-73
2024/03/26 08:37:12;;;;;;;3.43;2.30;;;8.90;98.70;;;;;;493929;237;28056;-74
2024/03/26 08:39:14;;;;;;;4.50;2.23;;;9.00;96.90;;;;;;493898;241;27968;-73
2024/03/26 08:41:15;;;;;;;3.50;2.03;;;9.10;96.40;;;;;;493950;241;27981;-73
2024/03/26 08:43:16;;;;;;;5.60;2.80;;;9.20;96.80;;;;;;493870;241;28101;-75
2024/03/26 08:45:17;;;;;;;2.10;2.00;;;9.20;99.70;;;;;;493932;241;27962;-73
2024/03/26 08:47:19;;;;;;;2.97;2.60;;;9.20;99.90;;;;;;493889;241;28085;-74
2024/03/26 08:49:20;;;;;;;3.60;2.20;;;9.30;99.90;;;;;;493847;241;28325;-73
2024/03/26 08:51:27;;;;;;;3.90;2.47;;;9.40;99.90;;;;;;493959;241;28536;-74
2024/03/26 08:53:22;;;;;;;2.30;2.10;;;9.40;99.90;;;;;;493378;241;28004;-73
2024/03/26 08:55:24;;;;;;;2.43;2.23;;;9.50;99.90;;;;;;493764;241;27820;-74
2024/03/26 08:57:25;;;;;;;2.83;2.00;;;9.40;99.90;;;;;;493880;241;27758;-74
2024/03/26 08:59:26;;;;;;;2.07;1.83;;;9.40;99.90;;;;;;493972;241;28545;-75
2024/03/26 09:01:27;;;;;;;2.43;2.23;;;9.40;99.90;;;;;;493947;241;28491;-74
2024/03/26 09:03:29;;;;;;;2.60;2.40;;;9.30;99.90;;;;;;493954;241;28630;-75
2024/03/26 09:05:30;;;;;;;2.33;2.13;;;9.20;99.90;;;;;;493944;241;28513;-73
2024/03/26 09:07:31;;;;;;;3.13;2.40;;;9.20;99.90;;;;;;493919;241;28491;-73
2024/03/26 09:09:32;;;;;;;2.43;2.17;;;9.30;99.90;;;;;;493985;241;28013;-74
2024/03/26 09:11:34;;;;;;;3.07;2.43;;;9.30;99.50;;;;;;493949;241;27726;-73
2024/03/26 09:13:39;;;;;;;2.80;2.20;;;9.50;98.50;;;;;;493912;241;28068;-73
2024/03/26 09:15:36;;;;;;;3.60;2.30;;;9.60;99.70;;;;;;493560;241;27944;-73
2024/03/26 09:17:37;;;;;;;2.77;1.70;;;9.50;97.90;;;;;;493957;241;28177;-74
2024/03/26 09:19:39;;;;;;;2.60;1.83;;;9.60;96.70;;;;;;493959;241;27631;-74
2024/03/26 09:21:41;;;;;;;1.90;1.57;;;9.70;96.90;;;;;;493921;241;27943;-73
2024/03/26 09:23:41;;;;;;;1.93;1.60;;;9.80;96.30;;;;;;493873;241;27979;-74
2024/03/26 09:25:42;;;;;;;1.87;1.77;;;9.80;95.30;;;;;;493918;237;27908;-72
2024/03/26 09:27:44;;;;;;;3.60;2.10;;;9.80;95.30;;;;;;493982;241;28022;-73
2024/03/26 09:29:45;;;;;;;2.63;2.13;;;9.80;97.30;;;;;;493958;241;27971;-74
2024/03/26 09:31:46;;;;;;;2.70;1.90;;;9.80;99.40;;;;;;493899;241;27881;-73
2024/03/26 09:33:47;;;;;;;9.33;2.20;;;9.80;99.80;;;;;;493877;241;28090;-73
2024/03/26 09:35:49;;;;;;;34.53;3.37;;;9.80;99.50;;;;;;493963;241;28600;-75
2024/03/26 09:37:50;;;;;;;11.00;2.30;;;10.00;96.60;;;;;;493935;241;28290;-73
2024/03/26 09:39:51;;;;;;;4.07;2.10;;;10.10;95.40;;;;;;493906;241;28577;-73
2024/03/26 09:41:52;;;;;;;3.20;1.70;;;10.30;95.40;;;;;;493896;241;27955;-74
2024/03/26 09:43:54;;;;;;;1.60;1.50;;;10.50;95.50;;;;;;493948;241;27833;-74
2024/03/26 09:45:55;;;;;;;2.67;1.50;;;10.60;94.70;;;;;;493961;241;28084;-75
2024/03/26 09:47:57;;;;;;;2.03;1.80;;;;;;;;;;493944;241;28044;-74
2024/03/26 09:49:59;;;;;;;1.93;1.77;;;10.70;93.70;;;;;;493905;241;27822;-73
2024/03/26 09:52:00;;;;;;;2.17;1.90;;;10.90;94.20;;;;;;493959;241;28681;-73
2024/03/26 09:54:01;;;;;;;2.60;1.93;;;11.10;93.90;;;;;;493937;241;28271;-74
2024/03/26 09:56:02;;;;;;;1.70;1.60;;;11.30;93.90;;;;;;493963;241;28275;-73
2024/03/26 09:58:04;;;;;;;6.97;1.60;;;11.50;92.70;;;;;;493920;241;28178;-73
2024/03/26 10:00:06;;;;;;;1.77;1.60;;;11.50;93.10;;;;;;493880;241;28091;-73
2024/03/26 10:02:06;;;;;;;3.07;2.10;;;11.70;93.30;;;;;;493908;241;28059;-73
2024/03/26 10:04:08;;;;;;;3.13;1.80;;;11.70;92.60;;;;;;493945;241;28855;-74
2024/03/26 10:06:09;;;;;;;2.00;1.67;;;11.90;93.00;;;;;;493948;241;28358;-72
2024/03/26 10:08:10;;;;;;;3.83;1.87;;;12.20;92.90;;;;;;493902;241;28553;-73
2024/03/26 10:10:11;;;;;;;1.60;1.50;;;12.40;92.30;;;;;;493972;241;29300;-75
2024/03/26 10:12:12;;;;;;;2.43;1.60;;;12.50;92.20;;;;;;493961;241;28764;-72
2024/03/26 10:14:15;;;;;;;1.70;1.60;;;;;;;;;;493916;241;29066;-72
2024/03/26 10:16:16;;;;;;;1.47;1.37;;;12.60;90.80;;;;;;493888;241;26517;-73
2024/03/26 10:18:19;;;;;;;1.60;1.50;;;;;;;;;;493968;241;28712;-72
2024/03/26 10:20:20;;;;;;;2.43;1.67;;;12.80;90.20;;;;;;493952;241;26659;-74
2024/03/26 10:22:21;;;;;;;2.47;1.50;;;12.80;89.70;;;;;;493916;241;28257;-73
2024/03/26 10:24:22;;;;;;;6.03;1.80;;;12.90;91.00;;;;;;493908;241;28202;-74
2024/03/26 10:26:23;;;;;;;1.80;1.50;;;13.10;91.00;;;;;;493950;241;28325;-75
2024/03/26 10:28:25;;;;;;;2.20;1.50;;;13.20;91.10;;;;;;493916;241;28261;-73
2024/03/26 10:30:26;;;;;;;3.53;1.63;;;13.40;90.60;;;;;;493881;241;28565;-73
2024/03/26 10:32:27;;;;;;;1.47;1.17;;;13.50;90.30;;;;;;493895;241;28181;-73
2024/03/26 10:34:28;;;;;;;1.60;1.50;;;13.60;89.70;;;;;;493954;241;28459;-72
2024/03/26 10:36:30;;;;;;;1.60;1.50;;;13.60;89.50;;;;;;493960;241;28455;-73
2024/03/26 10:38:31;;;;;;;1.80;1.50;;;13.60;89.80;;;;;;493924;241;28723;-72
2024/03/26 10:40:32;;;;;;;2.23;1.73;;;13.60;90.30;;;;;;493923;241;29299;-73